Airfield :
LOGIN :

Register | Disclaimer

   EN    FR    IT 

 










Legend :    VFR   Marginal VFR   IFR   Intensive IFR   Very Intensive IFR
Visi :
Ceiling :
>= 8 km
>= 3000ft
5 to 8 km
1000 to 3000 ft
1500m to 5 km
500 to 1000 ft
800 to 1500m
200 to 500 ft
< 800m
< 200 ft
Symbols :   Thunderstorms  Fog  Heavy snow  Heavy precipitations  Wind > 20 kt
SIGMETs :     Misc.  Thunderstorms  Icing  Turbulence  Mountain Waves  Volcanic Ashes






- Airport Elevation : 348 ft
- IATA code : STN


EGSS - London Stansted

CURRENT METAR :
  • 041450Z AUTO 15010KT 9999 NCD 15/03 Q1019

EXPIRED METARs :
  • 041420Z AUTO 16010KT 9999 FEW046 14/04 Q1020
  • 041350Z AUTO 15010KT 100V180 9999 SCT045 15/05 Q1020
  • 041320Z AUTO 19010KT 160V230 9999 SCT042 15/05 Q1020
  • 041250Z AUTO 18012KT 9999 FEW041 15/04 Q1020
  • 041220Z AUTO 19011KT 160V230 9999 FEW037 15/05 Q1020

TAF TAF EGSS
Valid from the 04 at 12:00 until the 05 at 18:00 UTC


041100Z 0412/0518 17010KT 9999 FEW045
TEMPO 0509/0518 16015G25KT
ATIS : +44 1279 669 325



MET'MAP, your aeronautical weather chart ! - Copyright ORBIFLY December 2007 - Disclaimer

ORBIFLY MET'MAP TEAM :

Programming & Development : Alexandra Zaïnal
Concept & original design : Baudouin d'Aumeries
Assistance for programming : Marc-Olivier Méhu
Technical & hardware support : Manuel Goepfert

Contact : metmap@orbifly.com




SOURCES & CREDITS :

   NOAA